Time;durP1;ratioP1;P1;durP2;ratioP2;P2;SDS_P1;SDS_P2;PMS_P1;PMS_P2;Temp;Humidity;BMP_temperature;BMP_pressure;BME280_temperature;BME280_humidity;BME280_pressure;Samples;Min_cycle;Max_cycle;Signal;HPM_P1;HPM_P2
2022/01/08 00:00:35;;;;;;;0.88;0.88;;;3.80;99.90;;;3.75;96.21;100106.00;4973013;28;20214;-72
2022/01/08 00:03:02;;;;;;;0.85;0.85;;;3.80;99.90;;;3.77;97.00;100102.44;4972851;28;20228;-70
2022/01/08 00:05:30;;;;;;;2.15;2.05;;;3.80;99.90;;;3.78;97.01;100093.78;4972769;28;20310;-69
2022/01/08 00:07:56;;;;;;;1.70;1.60;;;3.80;99.90;;;3.75;97.23;100106.84;4955410;28;20212;-71
2022/01/08 00:10:23;;;;;;;1.35;1.25;;;3.70;99.90;;;3.74;97.86;100097.44;4953599;28;20644;-70
2022/01/08 00:12:51;;;;;;;0.95;0.95;;;3.70;99.90;;;3.74;97.55;100096.59;4971118;28;20315;-69
2022/01/08 00:15:18;;;;;;;0.80;0.80;;;3.70;99.90;;;3.74;96.97;100084.53;4964861;28;20197;-70
2022/01/08 00:17:45;;;;;;;2.22;1.25;;;3.70;99.90;;;3.76;97.25;100084.44;4936251;29;20219;-72
2022/01/08 00:20:13;;;;;;;1.38;1.33;;;3.70;99.90;;;3.75;97.58;100077.59;4967647;28;20207;-69
2022/01/08 00:22:40;;;;;;;1.40;1.25;;;3.70;99.90;;;3.75;97.44;100069.88;4953759;28;20307;-69
2022/01/08 00:25:07;;;;;;;1.13;1.13;;;3.70;99.90;;;3.73;98.53;100054.47;4971295;28;20212;-72
2022/01/08 00:27:34;;;;;;;1.13;1.13;;;3.70;99.90;;;3.76;98.62;100061.22;4970685;28;22140;-68
2022/01/08 00:30:02;;;;;;;1.25;1.13;;;3.70;99.90;;;3.76;99.21;100048.34;4971686;28;20227;-72
2022/01/08 00:32:29;;;;;;;1.85;1.10;;;3.70;99.90;;;3.79;99.03;100048.19;4954237;28;20227;-70
2022/01/08 00:34:56;;;;;;;1.17;0.82;;;3.70;99.90;;;3.77;99.90;100044.81;4958065;28;20196;-70
2022/01/08 00:37:23;;;;;;;2.20;1.38;;;3.70;99.90;;;3.79;99.59;100024.97;4960247;28;20216;-70
2022/01/08 00:39:50;;;;;;;1.35;1.25;;;3.70;99.90;;;3.77;99.21;100026.75;4974434;28;20200;-70
2022/01/08 00:42:17;;;;;;;4.78;1.08;;;3.70;99.90;;;3.80;99.25;100019.72;4975075;28;20230;-70
2022/01/08 00:44:44;;;;;;;0.65;0.65;;;3.80;99.90;;;3.77;100.00;100013.84;4976380;28;20214;-71
2022/01/08 00:47:11;;;;;;;1.00;1.00;;;3.70;99.90;;;3.84;98.76;100023.78;4958489;28;20204;-68
2022/01/08 00:49:38;;;;;;;0.57;0.57;;;3.80;99.90;;;3.86;98.80;100016.78;4952271;28;20410;-69
2022/01/08 00:52:05;;;;;;;2.20;1.38;;;3.80;99.90;;;3.86;99.04;100003.88;4971763;28;20220;-68
2022/01/08 00:54:35;;;;;;;0.95;0.95;;;3.80;99.90;;;3.81;99.30;99997.31;4983751;28;20322;-71
2022/01/08 00:57:04;;;;;;;2.85;1.80;;;3.80;99.90;;;3.85;98.95;100001.41;4970675;28;20200;-68
2022/01/08 00:59:31;;;;;;;1.25;1.15;;;3.80;99.90;;;3.90;99.46;99989.91;4938078;29;20612;-69
2022/01/08 01:01:57;;;;;;;0.82;0.82;;;3.80;99.90;;;3.87;99.32;99989.25;4938003;29;20235;-68
2022/01/08 01:04:24;;;;;;;3.42;1.58;;;3.80;99.90;;;3.85;99.54;99986.72;4956498;28;20212;-68
2022/01/08 01:06:51;;;;;;;3.03;1.30;;;3.80;99.90;;;3.88;99.39;99972.81;4972891;28;20207;-67
2022/01/08 01:09:19;;;;;;;4.25;2.63;;;3.80;99.90;;;3.93;98.70;99965.69;4975196;28;20230;-70
2022/01/08 01:11:45;;;;;;;0.40;0.40;;;3.90;99.90;;;3.96;99.42;99962.09;4969658;23;20233;-65
2022/01/08 01:14:13;;;;;;;2.78;1.15;;;3.90;99.90;;;3.96;98.95;99947.44;4955209;29;20775;-66
2022/01/08 01:16:40;;;;;;;0.70;0.70;;;3.90;99.90;;;4.00;98.90;99942.94;4955584;29;20672;-66
2022/01/08 01:19:07;;;;;;;1.88;1.00;;;3.90;99.90;;;3.94;99.01;99932.03;4956334;29;20428;-66
2022/01/08 01:21:34;;;;;;;0.85;0.85;;;3.90;99.90;;;3.99;99.03;99925.78;4955467;29;20208;-66
2022/01/08 01:24:08;;;;;;;5.70;2.08;;;3.90;99.90;;;3.97;99.59;99918.13;4935153;29;20669;-66
2022/01/08 01:26:36;;;;;;;1.77;1.67;;;3.90;99.90;;;3.97;99.93;99912.13;4936603;29;20296;-66
2022/01/08 01:48:26;;;;;;;0.57;0.57;;;4.00;99.90;;;4.01;100.00;99878.31;4934184;29;20213;-66
2022/01/08 01:50:53;;;;;;;0.40;0.40;;;4.00;99.90;;;4.00;100.00;99871.50;4929489;28;20237;-66
2022/01/08 01:53:20;;;;;;;1.05;1.00;;;4.00;99.90;;;3.94;100.00;99871.81;4918224;29;20225;-66
2022/01/08 01:55:50;;;;;;;1.40;1.20;;;3.90;99.90;;;4.02;100.00;99869.66;4936634;29;20205;-66
2022/01/08 01:58:18;;;;;;;1.45;1.10;;;3.90;99.90;;;3.98;100.00;99870.78;4934206;29;20206;-66
2022/01/08 02:00:48;;;;;;;2.35;0.82;;;3.90;99.90;;;4.06;100.00;99868.56;4933034;29;20224;-65
2022/01/08 02:03:15;;;;;;;0.70;0.70;;;4.00;99.90;;;3.99;100.00;99862.09;4936238;29;20288;-66
2022/01/08 02:05:43;;;;;;;0.85;0.85;;;4.00;99.90;;;4.07;100.00;99865.06;4934690;29;20240;-66
2022/01/08 02:08:12;;;;;;;1.98;1.10;;;4.00;99.90;;;4.00;100.00;99855.19;4933486;29;20682;-66
2022/01/08 02:10:40;;;;;;;0.68;0.68;;;4.00;99.90;;;3.98;100.00;99857.03;4936220;29;20221;-66
2022/01/08 02:13:07;;;;;;;4.47;0.50;;;3.90;99.90;;;3.98;100.00;99849.28;4935315;29;20629;-66
2022/01/08 02:15:35;;;;;;;3.03;1.00;;;3.90;99.90;;;3.90;100.00;99857.44;4935241;29;20224;-66
2022/01/08 02:18:04;;;;;;;3.40;0.95;;;3.90;99.90;;;3.91;100.00;99856.53;4934322;29;20209;-66
2022/01/08 02:20:32;;;;;;;0.57;0.57;;;3.90;99.90;;;3.86;100.00;99856.78;4935247;29;20220;-66
2022/01/08 02:22:59;;;;;;;0.60;0.60;;;3.90;99.90;;;3.97;100.00;99856.19;4935031;29;20316;-66
2022/01/08 02:25:26;;;;;;;0.32;0.32;;;3.90;99.90;;;3.93;100.00;99850.38;4935243;29;20209;-66
2022/01/08 02:27:53;;;;;;;0.63;0.63;;;3.90;99.90;;;3.88;100.00;99848.97;4935842;29;20296;-66
2022/01/08 02:30:20;;;;;;;0.40;0.40;;;3.80;99.90;;;3.87;100.00;99840.41;4933912;29;20237;-66
2022/01/08 02:32:47;;;;;;;0.30;0.30;;;3.80;99.90;;;3.84;100.00;99832.81;4935668;29;20247;-66
2022/01/08 02:35:16;;;;;;;0.95;0.47;;;3.80;99.90;;;3.91;100.00;99835.91;4934944;29;20205;-66
2022/01/08 02:37:43;;;;;;;0.70;0.70;;;3.80;99.90;;;3.94;100.00;99838.28;4935004;29;20201;-66
2022/01/08 02:40:11;;;;;;;0.55;0.47;;;3.80;99.90;;;3.91;100.00;99834.16;4932748;29;20253;-66
2022/01/08 02:42:49;;;;;;;0.40;0.40;;;3.80;99.90;;;3.97;100.00;99837.28;4933963;29;20261;-66
2022/01/08 02:45:17;;;;;;;0.77;0.77;;;3.90;99.90;;;3.90;100.00;99841.97;4932819;29;20205;-66
2022/01/08 02:47:45;;;;;;;0.70;0.70;;;3.90;99.90;;;3.92;100.00;99842.69;4922287;29;20586;-66
2022/01/08 02:50:12;;;;;;;1.10;0.65;;;3.90;99.90;;;3.87;100.00;99839.56;4933228;29;20260;-66
2022/01/08 02:52:44;;;;;;;1.10;1.02;;;3.80;99.90;;;3.90;100.00;99850.53;4934688;29;20222;-66
2022/01/08 02:55:16;;;;;;;0.50;0.50;;;3.80;99.90;;;3.93;100.00;99828.91;4934552;29;20208;-66
2022/01/08 02:57:43;;;;;;;1.13;0.90;;;3.80;99.90;;;3.88;100.00;99834.31;4910900;29;20770;-66
2022/01/08 03:00:17;;;;;;;0.40;0.40;;;3.80;99.90;;;3.89;100.00;99832.56;4932634;29;20211;-66
2022/01/08 03:02:47;;;;;;;1.23;0.40;;;3.80;99.90;;;3.82;100.00;99826.94;4934526;29;20228;-66
2022/01/08 03:05:14;;;;;;;0.20;0.20;;;3.80;99.90;;;3.82;100.00;99820.94;4915631;29;20233;-66
2022/01/08 03:07:44;;;;;;;0.30;0.30;;;3.80;99.90;;;3.78;100.00;99824.59;4933666;29;20205;-66
2022/01/08 03:10:16;;;;;;;0.40;0.40;;;3.70;99.90;;;3.74;100.00;99829.13;4913154;29;20705;-66
2022/01/08 03:12:44;;;;;;;0.65;0.50;;;3.70;99.90;;;3.78;100.00;99822.03;4910109;29;20228;-66
2022/01/08 03:15:14;;;;;;;2.72;0.70;;;3.70;99.90;;;3.78;100.00;99825.44;4935107;29;20202;-66
2022/01/08 03:17:43;;;;;;;0.35;0.35;;;3.70;99.90;;;3.76;100.00;99827.28;4934337;29;20229;-66
2022/01/08 03:20:14;;;;;;;0.30;0.30;;;3.70;99.90;;;3.75;100.00;99825.59;4933647;29;20664;-66
2022/01/08 03:22:45;;;;;;;0.50;0.50;;;3.70;99.90;;;3.71;100.00;99820.69;4933811;29;20596;-66
2022/01/08 03:25:14;;;;;;;0.95;0.95;;;3.60;99.90;;;3.77;100.00;99828.94;4932519;29;20227;-66
2022/01/08 03:27:41;;;;;;;1.77;1.05;;;3.70;99.90;;;3.79;100.00;99842.56;4934093;29;20232;-66
2022/01/08 03:30:11;;;;;;;1.00;1.00;;;3.70;99.90;;;3.81;100.00;99861.38;4916526;29;20530;-66
2022/01/08 03:32:38;;;;;;;0.80;0.80;;;3.70;99.90;;;3.86;100.00;99861.97;4916531;29;20276;-67
2022/01/08 03:35:06;;;;;;;0.60;0.60;;;3.80;99.90;;;3.90;100.00;99863.44;4932130;29;20658;-66
2022/01/08 03:37:33;;;;;;;0.80;0.80;;;3.80;99.90;;;3.94;100.00;99864.09;4922579;29;20204;-66
2022/01/08 03:39:59;;;;;;;1.00;1.00;;;3.90;99.90;;;3.97;100.00;99860.50;4934072;29;20209;-66
2022/01/08 03:42:26;;;;;;;1.80;0.68;;;3.90;99.90;;;3.98;100.00;99863.03;4932210;29;20236;-66
2022/01/08 03:44:53;;;;;;;0.30;0.30;;;3.90;99.90;;;3.99;100.00;99864.66;4933522;29;20293;-66
2022/01/08 03:47:42;;;;;;;1.88;0.75;;;3.90;99.90;;;3.90;100.00;99868.59;4933421;29;20208;-66
2022/01/08 03:50:09;;;;;;;0.70;0.70;;;3.90;99.90;;;3.96;100.00;99866.59;4933093;29;20225;-66
2022/01/08 03:52:36;;;;;;;0.55;0.55;;;3.80;99.90;;;3.97;100.00;99866.50;4933978;29;20221;-67
2022/01/08 03:55:04;;;;;;;1.10;0.88;;;3.90;99.90;;;3.94;100.00;99862.34;4934139;29;20248;-66
2022/01/08 03:57:31;;;;;;;0.40;0.40;;;3.90;99.90;;;3.95;100.00;99863.19;4932738;29;20211;-66
2022/01/08 03:59:58;;;;;;;1.85;0.50;;;3.90;99.90;;;3.92;100.00;99865.94;4933615;29;20205;-66
2022/01/08 04:02:25;;;;;;;0.40;0.40;;;3.80;99.90;;;3.89;100.00;99879.03;4933163;29;20229;-67
2022/01/08 04:04:52;;;;;;;0.70;0.70;;;3.80;99.90;;;3.90;100.00;99872.94;4933472;29;20599;-66
2022/01/08 04:07:19;;;;;;;0.55;0.45;;;3.90;99.90;;;3.83;99.95;99875.03;4934254;29;20764;-66
2022/01/08 04:09:46;;;;;;;0.80;0.80;;;3.80;99.90;;;3.65;100.00;99882.97;4933560;29;20209;-67
2022/01/08 04:12:17;;;;;;;0.30;0.30;;;3.50;99.90;;;3.57;99.62;99885.13;4934409;29;20239;-67
2022/01/08 04:14:54;;;;;;;0.40;0.40;;;3.50;99.90;;;3.53;99.72;99891.38;4938103;29;20205;-66
2022/01/08 04:17:21;;;;;;;0.50;0.50;;;3.40;99.90;;;3.46;99.30;99908.09;4939471;29;20216;-66
2022/01/08 04:19:48;;;;;;;0.60;0.40;;;3.40;99.90;;;3.47;98.84;99907.19;4939724;29;20204;-66
2022/01/08 04:22:16;;;;;;;0.30;0.30;;;3.40;99.90;;;3.47;97.44;99917.50;4940511;29;20312;-66
2022/01/08 04:24:43;;;;;;;0.20;0.20;;;3.40;99.90;;;3.46;97.60;99931.31;4923052;29;20197;-67
2022/01/08 04:27:11;;;;;;;0.50;0.50;;;3.30;99.90;;;3.22;97.84;99941.19;4939963;29;20256;-67
2022/01/08 04:29:38;;;;;;;0.40;0.40;;;3.20;99.90;;;3.25;98.33;99950.50;4938798;29;20201;-66
2022/01/08 04:32:05;;;;;;;0.55;0.55;;;3.20;99.90;;;3.19;99.23;99949.09;4939074;29;20229;-66
2022/01/08 04:34:32;;;;;;;0.85;0.85;;;3.10;99.90;;;3.00;99.19;99964.66;4938693;29;20572;-64
2022/01/08 04:36:59;;;;;;;1.13;1.13;;;3.00;99.90;;;2.96;100.00;99972.66;4921374;29;20225;-66
2022/01/08 04:39:27;;;;;;;1.23;1.23;;;3.00;99.90;;;2.83;100.00;99985.28;4939344;29;20215;-66
2022/01/08 04:41:54;;;;;;;0.70;0.70;;;2.90;99.90;;;2.83;100.00;100000.75;4939356;29;20201;-66
2022/01/08 04:44:21;;;;;;;1.27;1.27;;;2.80;99.90;;;2.74;100.00;100005.53;4940431;29;20225;-67
2022/01/08 04:46:48;;;;;;;0.70;0.70;;;2.80;99.90;;;2.71;100.00;100009.09;4939176;29;20208;-65
2022/01/08 04:49:15;;;;;;;1.00;1.00;;;2.70;99.90;;;2.57;100.00;100021.84;4939549;29;20207;-64
2022/01/08 04:51:42;;;;;;;1.00;1.00;;;2.60;99.90;;;2.51;100.00;100027.28;4937677;29;20235;-65
2022/01/08 04:54:09;;;;;;;0.75;0.75;;;2.60;99.90;;;2.53;100.00;100040.09;4939711;29;20212;-65
2022/01/08 04:56:36;;;;;;;0.60;0.60;;;2.60;99.90;;;2.46;100.00;100049.00;4936020;29;20288;-64
2022/01/08 04:59:03;;;;;;;0.90;0.90;;;2.60;99.90;;;2.45;100.00;100052.50;4932657;29;20204;-64
2022/01/08 05:01:30;;;;;;;0.80;0.80;;;2.50;99.90;;;2.45;100.00;100071.34;4926616;29;20236;-64
2022/01/08 05:03:57;;;;;;;0.63;0.63;;;2.50;99.90;;;2.50;100.00;100061.66;4920947;29;20572;-65
2022/01/08 05:06:24;;;;;;;0.70;0.60;;;2.60;99.90;;;2.47;100.00;100064.38;4930574;29;20206;-67
2022/01/08 05:08:51;;;;;;;0.73;0.73;;;2.60;99.90;;;2.55;100.00;100080.31;4936665;29;20201;-64
2022/01/08 05:11:18;;;;;;;0.70;0.70;;;2.60;99.90;;;2.58;100.00;100094.78;4938185;29;20221;-65
2022/01/08 05:13:45;;;;;;;0.40;0.40;;;2.70;99.90;;;2.65;100.00;100096.97;4939522;29;20320;-65
2022/01/08 05:16:13;;;;;;;0.57;0.50;;;2.70;99.90;;;2.67;100.00;100110.63;4939185;29;20216;-65
2022/01/08 05:18:39;;;;;;;0.40;0.40;;;2.70;99.90;;;2.62;100.00;100112.56;4937886;29;20202;-64
2022/01/08 05:21:13;;;;;;;0.47;0.47;;;2.70;99.90;;;2.72;100.00;100113.81;4939446;29;20215;-65
2022/01/08 05:23:40;;;;;;;0.40;0.40;;;2.80;99.90;;;2.73;100.00;100136.06;4938429;29;20315;-64
2022/01/08 05:26:07;;;;;;;0.40;0.40;;;2.80;99.90;;;2.73;100.00;100141.22;4936224;29;20205;-65
2022/01/08 05:28:34;;;;;;;0.40;0.40;;;2.80;99.90;;;2.74;100.00;100148.06;4934590;29;20666;-65
2022/01/08 05:31:01;;;;;;;0.40;0.40;;;2.80;99.90;;;2.79;100.00;100155.56;4935865;29;20214;-65
2022/01/08 05:33:28;;;;;;;0.50;0.50;;;2.80;99.90;;;2.81;100.00;100171.78;4935001;29;20221;-65
2022/01/08 05:35:55;;;;;;;0.50;0.50;;;2.80;99.90;;;2.83;100.00;100183.69;4936893;29;20205;-64
2022/01/08 05:38:22;;;;;;;0.40;0.40;;;2.80;99.90;;;2.82;100.00;100191.47;4930363;29;20816;-64
2022/01/08 05:40:49;;;;;;;0.50;0.43;;;2.80;99.90;;;2.82;100.00;100189.75;4930803;29;20206;-64
2022/01/08 05:43:16;;;;;;;0.40;0.40;;;2.90;99.90;;;2.91;100.00;100201.38;4916466;29;20237;-65
2022/01/08 05:45:43;;;;;;;0.70;0.70;;;3.00;99.90;;;2.90;100.00;100203.09;4934186;29;20241;-64
2022/01/08 05:48:10;;;;;;;2.65;0.50;;;2.90;99.90;;;2.94;99.72;100220.09;4934658;29;20213;-65
2022/01/08 05:50:36;;;;;;;0.52;0.52;;;2.90;99.90;;;2.97;98.86;100227.69;4934752;29;20241;-65
2022/01/08 05:53:03;;;;;;;0.55;0.55;;;3.00;99.90;;;2.98;98.20;100228.53;4934529;29;20231;-64
2022/01/08 05:55:30;;;;;;;0.70;0.70;;;3.00;99.90;;;2.96;97.76;100238.88;4936528;29;20219;-65
2022/01/08 05:57:57;;;;;;;0.38;0.38;;;3.00;99.90;;;2.97;97.40;100239.72;4935398;29;20210;-64
2022/01/08 06:00:24;;;;;;;0.80;0.80;;;3.00;99.90;;;2.95;97.77;100239.81;4932918;29;20220;-65
2022/01/08 06:02:51;;;;;;;3.45;0.75;;;3.00;99.90;;;2.97;98.29;100248.28;4933846;29;20232;-64
2022/01/08 06:05:18;;;;;;;1.27;1.17;;;3.00;99.90;;;3.03;97.55;100255.75;4934921;29;20217;-64
2022/01/08 06:07:45;;;;;;;1.70;1.30;;;3.00;99.90;;;3.07;97.60;100253.84;4934151;29;20205;-65
2022/01/08 06:10:12;;;;;;;1.10;1.10;;;3.10;99.90;;;3.13;97.68;100262.13;4935089;29;20578;-65
2022/01/08 06:12:39;;;;;;;1.30;1.30;;;3.10;99.90;;;3.14;97.26;100265.53;4933909;29;20241;-65
2022/01/08 06:15:06;;;;;;;2.28;1.40;;;3.10;99.90;;;3.13;96.42;100272.44;4934646;29;20320;-65
2022/01/08 06:17:33;;;;;;;1.20;1.20;;;3.10;99.90;;;3.15;96.72;100277.53;4934151;29;20579;-65
2022/01/08 06:20:00;;;;;;;1.33;1.33;;;3.10;99.90;;;3.13;96.02;100275.00;4934670;29;20674;-64
2022/01/08 06:22:27;;;;;;;3.47;1.63;;;3.10;99.90;;;3.14;96.45;100284.44;4936030;29;20254;-65
2022/01/08 06:24:54;;;;;;;1.40;1.30;;;3.10;99.90;;;3.17;95.98;100286.03;4934055;29;20213;-65
2022/01/08 06:27:21;;;;;;;1.48;1.48;;;3.10;99.90;;;3.14;95.65;100296.47;4933751;29;20209;-65
2022/01/08 06:29:48;;;;;;;1.25;1.25;;;3.10;99.90;;;3.17;95.85;100296.34;4933417;29;20317;-64
2022/01/08 06:32:15;;;;;;;1.00;1.00;;;3.10;99.90;;;3.23;96.10;100305.53;4925793;29;20613;-65
2022/01/08 06:34:42;;;;;;;1.27;1.27;;;3.20;99.90;;;3.30;96.20;100312.06;4927292;29;20194;-65
2022/01/08 06:37:10;;;;;;;1.42;1.38;;;3.30;99.90;;;3.27;96.16;100310.47;4916746;29;20217;-66
2022/01/08 06:39:37;;;;;;;1.38;1.10;;;3.20;99.90;;;3.28;95.61;100309.53;4932135;29;20204;-64
2022/01/08 06:42:04;;;;;;;1.73;1.38;;;3.20;99.90;;;3.28;95.60;100319.84;4934014;29;20227;-65
2022/01/08 06:44:31;;;;;;;1.20;1.20;;;3.20;99.90;;;3.29;95.19;100320.69;4932586;29;20220;-65
2022/01/08 06:46:58;;;;;;;1.05;1.05;;;3.20;99.90;;;3.28;95.03;100314.69;4928825;29;20201;-65
2022/01/08 06:49:25;;;;;;;0.57;0.57;;;3.20;99.90;;;3.29;95.22;100326.69;4925692;29;20236;-63
2022/01/08 06:51:52;;;;;;;3.17;0.90;;;3.20;99.90;;;3.12;95.23;100335.22;4934991;29;20591;-65
2022/01/08 06:54:19;;;;;;;1.50;1.27;;;3.10;99.90;;;3.07;95.95;100351.78;4931185;29;20202;-64
2022/01/08 06:56:46;;;;;;;1.05;1.05;;;2.90;99.90;;;3.08;96.41;100349.16;4943658;29;20757;-65
2022/01/08 06:59:13;;;;;;;1.45;0.90;;;3.00;99.90;;;3.10;95.71;100355.06;4949463;29;20699;-65
2022/01/08 07:01:40;;;;;;;0.30;0.30;;;3.00;99.90;;;3.00;96.60;100353.00;4933474;29;20212;-64
2022/01/08 07:04:07;;;;;;;1.35;1.25;;;2.90;99.90;;;3.06;96.02;100357.84;4934373;29;20210;-65
2022/01/08 07:06:33;;;;;;;2.85;1.00;;;2.90;99.90;;;2.94;96.69;100377.28;4933446;29;20215;-67
2022/01/08 07:09:00;;;;;;;0.20;0.20;;;2.80;99.90;;;2.90;96.01;100377.47;4930889;29;20575;-67
2022/01/08 07:11:27;;;;;;;1.45;1.00;;;2.80;99.90;;;2.88;96.50;100379.28;4933691;29;20243;-66
2022/01/08 07:13:55;;;;;;;0.77;0.50;;;2.80;99.90;;;2.76;96.81;100374.69;4995570;23;20227;-65
2022/01/08 07:16:22;;;;;;;1.30;1.20;;;2.70;99.90;;;2.79;97.24;100377.94;4975438;28;20687;-65
2022/01/08 07:18:49;;;;;;;1.25;0.85;;;2.70;99.90;;;2.80;96.77;100397.69;4992806;28;20203;-65
2022/01/08 07:21:16;;;;;;;0.57;0.57;;;2.70;99.90;;;2.78;97.08;100402.06;4991498;28;20213;-65
2022/01/08 07:23:42;;;;;;;4.03;1.17;;;2.70;99.90;;;2.77;97.37;100415.03;4959079;28;20232;-66
2022/01/08 07:26:09;;;;;;;0.77;0.77;;;2.70;99.90;;;2.85;97.19;100418.94;4954869;28;20706;-65
2022/01/08 07:28:38;;;;;;;0.73;0.73;;;2.80;99.90;;;2.85;96.52;100421.50;4954561;28;20602;-64
2022/01/08 07:31:05;;;;;;;0.80;0.70;;;2.80;99.90;;;2.83;96.68;100423.28;4940472;28;20220;-66
2022/01/08 07:33:32;;;;;;;0.55;0.55;;;2.80;99.90;;;2.89;96.20;100435.09;4954694;28;20224;-65
2022/01/08 07:35:59;;;;;;;0.32;0.32;;;2.80;99.90;;;3.00;95.79;100443.19;4971144;28;20231;-65
2022/01/08 07:38:25;;;;;;;0.55;0.55;;;2.90;99.90;;;3.08;95.55;100452.25;4970955;28;20686;-66
2022/01/08 07:40:52;;;;;;;0.40;0.40;;;3.00;99.90;;;3.20;94.31;100456.03;4967719;28;20222;-66
2022/01/08 07:43:20;;;;;;;0.57;0.57;;;3.10;99.90;;;3.25;93.82;100472.13;4971156;28;20246;-65
2022/01/08 07:45:48;;;;;;;0.60;0.60;;;3.20;99.90;;;3.19;92.37;100466.41;4971401;28;20203;-65
2022/01/08 07:48:15;;;;;;;1.02;0.93;;;3.10;99.90;;;3.26;92.56;100472.97;4953758;28;20218;-66
2022/01/08 07:50:43;;;;;;;0.88;0.88;;;3.20;99.90;;;3.27;91.94;100477.22;4971328;28;20196;-64
2022/01/08 07:53:10;;;;;;;0.30;0.30;;;3.10;99.90;;;3.24;92.11;100477.38;4972073;28;20230;-65
2022/01/08 07:55:37;;;;;;;1.48;0.75;;;3.10;99.90;;;3.29;91.32;100491.72;4981592;28;20200;-65
2022/01/08 07:58:03;;;;;;;0.80;0.80;;;3.20;99.90;;;3.36;90.31;100494.88;4971101;28;20226;-65
2022/01/08 08:00:30;;;;;;;0.40;0.40;;;3.30;99.90;;;3.42;90.58;100495.44;4971108;28;20234;-65
2022/01/08 08:02:57;;;;;;;0.55;0.55;;;3.30;99.90;;;3.45;89.79;100500.44;4972779;28;20228;-66
2022/01/08 08:05:24;;;;;;;0.80;0.80;;;3.40;99.90;;;3.55;89.21;100506.88;4972044;28;20616;-65
2022/01/08 08:07:51;;;;;;;1.45;1.30;;;3.40;99.90;;;3.59;88.52;100511.00;4954143;28;20805;-65
2022/01/08 08:10:18;;;;;;;0.40;0.40;;;3.50;99.90;;;3.66;88.42;100517.53;4954426;28;20673;-65
2022/01/08 08:12:45;;;;;;;0.90;0.90;;;3.60;99.90;;;3.73;87.66;100518.94;4971498;28;20239;-65
2022/01/08 08:15:15;;;;;;;2.92;0.75;;;3.70;99.90;;;3.80;87.27;100519.50;4953172;28;20201;-66
2022/01/08 08:17:43;;;;;;;2.15;1.02;;;3.80;99.90;;;3.82;86.79;100517.66;4955120;28;20212;-66
2022/01/08 08:20:11;;;;;;;1.85;1.10;;;3.80;99.90;;;3.85;86.93;100520.13;4968135;28;20211;-65
2022/01/08 08:22:39;;;;;;;0.80;0.80;;;3.80;99.90;;;3.88;86.75;100519.97;4971359;28;20318;-66
2022/01/08 08:25:10;;;;;;;1.35;0.85;;;3.90;99.90;;;3.89;86.52;100524.22;4954503;28;20207;-66
2022/01/08 08:27:39;;;;;;;0.85;0.85;;;3.90;99.90;;;3.91;86.53;100540.47;4969120;28;20580;-66
2022/01/08 08:30:07;;;;;;;0.80;0.80;;;3.90;99.90;;;3.88;86.08;100538.03;4954548;28;20218;-66
2022/01/08 08:32:34;;;;;;;1.25;0.65;;;3.90;99.90;;;3.90;86.51;100542.22;4953195;28;20231;-67
2022/01/08 08:35:01;;;;;;;3.13;1.10;;;3.90;99.90;;;3.92;86.46;100544.72;4970642;28;20208;-66
2022/01/08 08:37:28;;;;;;;1.70;0.98;;;3.90;99.90;;;3.96;86.36;100546.28;4948128;28;20204;-65
2022/01/08 08:39:55;;;;;;;2.05;1.20;;;3.90;99.90;;;4.02;87.11;100546.00;4970911;28;20234;-66
2022/01/08 08:42:22;;;;;;;1.58;1.48;;;4.00;99.90;;;4.10;86.88;100543.03;4959511;28;20224;-66
2022/01/08 08:44:48;;;;;;;1.00;0.90;;;4.10;99.90;;;4.20;86.23;100545.13;4978978;28;20211;-65
2022/01/08 08:47:15;;;;;;;8.57;1.30;;;4.20;99.90;;;4.30;85.52;100548.13;4972420;28;20204;-65
2022/01/08 08:49:42;;;;;;;1.17;1.08;;;4.30;99.90;;;4.40;84.53;100557.94;4970887;28;20632;-66
2022/01/08 08:52:09;;;;;;;1.00;1.00;;;4.50;99.90;;;4.44;83.98;100556.03;4969477;28;20231;-65
2022/01/08 08:54:39;;;;;;;0.90;0.90;;;4.50;99.90;;;4.44;84.06;100559.47;4970133;28;20204;-64
2022/01/08 08:57:07;;;;;;;1.02;1.02;;;4.40;99.90;;;4.41;83.86;100562.19;4966207;28;20211;-65
2022/01/08 08:59:37;;;;;;;1.00;1.00;;;4.40;99.90;;;4.44;83.69;100562.06;4955690;28;20885;-66
2022/01/08 09:02:04;;;;;;;0.80;0.80;;;4.40;99.90;;;4.39;84.08;100565.75;4974716;28;20295;-64
2022/01/08 09:04:31;;;;;;;0.80;0.80;;;4.40;99.90;;;4.41;84.21;100563.91;4983318;28;20210;-65
2022/01/08 09:07:01;;;;;;;1.60;0.95;;;4.40;99.90;;;4.45;84.53;100565.47;4939505;28;20208;-65
2022/01/08 09:09:28;;;;;;;1.33;1.05;;;4.40;99.90;;;4.46;84.75;100564.53;4973348;28;20228;-68
2022/01/08 09:11:55;;;;;;;0.68;0.60;;;4.50;99.90;;;4.45;84.54;100566.28;4973041;28;20223;-66
2022/01/08 09:14:22;;;;;;;0.90;0.90;;;4.50;99.90;;;4.49;84.23;100574.75;4973427;28;20236;-65
2022/01/08 09:16:57;;;;;;;1.00;1.00;;;4.50;99.90;;;4.51;84.16;100570.34;4974106;28;20775;-65
2022/01/08 09:19:25;;;;;;;1.30;1.20;;;4.50;99.90;;;4.51;84.15;100573.78;4974696;28;20203;-65
2022/01/08 09:21:52;;;;;;;0.82;0.82;;;4.50;99.90;;;4.56;83.82;100573.53;4975151;28;20196;-64
2022/01/08 09:24:20;;;;;;;0.60;0.60;;;4.60;99.90;;;4.54;82.54;100576.19;4973437;28;20348;-66
2022/01/08 09:26:48;;;;;;;1.52;1.17;;;4.60;99.90;;;4.61;82.12;100584.50;4957942;28;20680;-65
2022/01/08 09:29:16;;;;;;;2.00;1.00;;;4.60;99.90;;;4.66;82.13;100579.94;4974918;28;20215;-65
2022/01/08 09:31:46;;;;;;;1.00;1.00;;;4.70;99.90;;;4.71;81.41;100581.38;4972316;28;20218;-64
2022/01/08 09:34:14;;;;;;;0.90;0.90;;;4.70;99.90;;;4.85;81.29;100575.56;4954794;28;20220;-64
2022/01/08 09:36:41;;;;;;;8.88;1.40;;;5.00;99.90;;;4.98;80.29;100578.38;4970275;28;20208;-64
2022/01/08 09:39:08;;;;;;;1.40;1.30;;;5.10;99.90;;;5.01;78.85;100583.38;4971709;28;20649;-64
2022/01/08 09:41:35;;;;;;;0.93;0.93;;;5.10;99.90;;;5.11;78.77;100588.00;4972404;28;20615;-64
2022/01/08 09:44:03;;;;;;;1.13;1.13;;;5.20;99.90;;;5.10;78.45;100586.34;4955624;28;20236;-64
2022/01/08 09:46:30;;;;;;;3.22;1.13;;;5.30;99.90;;;5.26;77.32;100584.63;4954853;28;20218;-65
2022/01/08 09:48:57;;;;;;;1.00;1.00;;;5.30;99.90;;;5.35;77.39;100588.50;4955547;28;20207;-65
2022/01/08 09:51:26;;;;;;;2.13;1.30;;;5.40;99.90;;;5.66;76.53;100596.38;4972503;28;20649;-64
2022/01/08 09:53:54;;;;;;;1.95;1.20;;;5.80;99.90;;;5.89;75.64;100588.28;4960023;28;20220;-64
2022/01/08 09:56:25;;;;;;;1.95;1.50;;;6.20;99.90;;;6.08;74.52;100594.13;4973099;28;20617;-64
2022/01/08 09:58:53;;;;;;;0.90;0.90;;;6.30;99.90;;;6.47;72.94;100595.47;4964156;28;20206;-63
2022/01/08 10:01:25;;;;;;;0.60;0.60;;;6.70;99.90;;;6.64;71.52;100593.59;4964157;28;20201;-65
2022/01/08 10:03:53;;;;;;;1.47;1.37;;;7.00;99.90;;;6.60;70.50;100581.72;4973316;28;20215;-66
2022/01/08 10:06:31;;;;;;;4.10;1.70;;;6.90;99.90;;;6.62;70.11;100586.84;4972463;28;20643;-65
2022/01/08 10:08:58;;;;;;;1.47;1.37;;;6.80;99.90;;;6.77;70.43;100580.78;4973733;28;20630;-65
2022/01/08 10:11:28;;;;;;;2.57;1.30;;;7.00;99.90;;;6.86;69.80;100581.06;4970899;28;21014;-65
2022/01/08 10:14:14;;;;;;;1.17;1.10;;;7.10;99.90;;;6.89;68.73;100590.44;4925248;28;20638;-64
2022/01/08 10:19:30;;;;;;;5.80;2.10;;;7.30;99.90;;;6.88;68.51;100588.75;4972987;28;20621;-65
2022/01/08 10:21:57;;;;;;;4.00;1.90;;;7.10;99.90;;;6.87;69.32;100584.50;4972974;28;20634;-65
2022/01/08 10:24:28;;;;;;;1.20;1.10;;;7.10;99.90;;;7.00;69.27;100585.47;4974467;28;20611;-64
2022/01/08 10:27:06;;;;;;;2.77;2.10;;;7.30;99.90;;;7.31;67.23;100584.50;4971682;28;20646;-66
2022/01/08 10:29:34;;;;;;;1.57;1.50;;;7.60;99.90;;;7.35;68.49;100583.41;4977463;28;20650;-65
2022/01/08 10:32:07;;;;;;;1.70;1.50;;;7.70;99.90;;;7.31;66.31;100574.13;4967286;28;20660;-65
2022/01/08 10:34:35;;;;;;;2.17;1.40;;;7.50;99.90;;;7.27;66.77;100583.88;4971400;28;20630;-64
2022/01/08 10:37:06;;;;;;;2.10;1.23;;;7.50;99.90;;;7.19;66.56;100562.72;4963671;28;20643;-65
2022/01/08 10:39:40;;;;;;;1.53;1.27;;;7.30;99.90;;;7.07;67.72;100566.03;4981322;28;20707;-64
2022/01/08 10:42:16;;;;;;;3.90;1.10;;;7.10;99.90;;;6.99;67.64;100568.22;4963472;28;20640;-64
2022/01/08 10:44:50;;;;;;;2.30;1.30;;;7.20;99.90;;;7.11;67.18;100557.16;4987736;28;20626;-64
2022/01/08 10:47:19;;;;;;;1.00;1.00;;;7.30;99.90;;;7.17;66.66;100556.78;4975499;28;20643;-63
2022/01/08 10:50:06;;;;;;;2.53;1.30;;;7.30;99.90;;;6.97;66.44;100559.72;4971887;28;20998;-64